createdAt,value
2022-09-21T00:01:25.863Z,14.91
2022-09-21T00:03:59.401Z,14.86
2022-09-21T00:06:30.963Z,14.84
2022-09-21T00:08:57.676Z,14.80
2022-09-21T00:11:30.213Z,14.73
2022-09-21T00:14:00.963Z,14.81
2022-09-21T00:16:28.784Z,14.89
2022-09-21T00:18:55.660Z,15.05
2022-09-21T00:21:22.387Z,15.06
2022-09-21T00:23:49.380Z,15.16
2022-09-21T00:26:18.948Z,15.13
2022-09-21T00:28:46.168Z,14.98
2022-09-21T00:31:15.511Z,14.99
2022-09-21T00:33:46.484Z,15.05
2022-09-21T00:36:15.069Z,15.16
2022-09-21T00:38:41.807Z,14.88
2022-09-21T00:41:11.072Z,15.00
2022-09-21T00:43:43.192Z,15.00
2022-09-21T00:46:29.658Z,14.83
2022-09-21T00:48:58.189Z,14.93
2022-09-21T00:51:26.023Z,15.06
2022-09-21T00:53:58.546Z,15.09
2022-09-21T00:56:26.009Z,15.01
2022-09-21T00:58:55.017Z,14.94
2022-09-21T01:01:22.320Z,14.90
2022-09-21T01:03:51.634Z,14.67
2022-09-21T01:06:20.644Z,14.54
2022-09-21T01:08:53.046Z,14.48
2022-09-21T01:11:49.687Z,14.73
2022-09-21T01:14:35.097Z,14.65
2022-09-21T01:17:20.032Z,14.48
2022-09-21T01:20:01.910Z,14.52
2022-09-21T01:22:52.936Z,14.51
2022-09-21T01:25:53.271Z,14.49
2022-09-21T01:28:46.193Z,14.33
2022-09-21T01:31:22.291Z,13.90
2022-09-21T01:33:54.989Z,13.79
2022-09-21T01:36:28.912Z,14.35
2022-09-21T01:39:02.159Z,14.10
2022-09-21T01:41:30.397Z,14.15
2022-09-21T01:44:08.581Z,13.91
2022-09-21T01:46:37.645Z,14.16
2022-09-21T01:49:18.090Z,14.03
2022-09-21T01:51:51.804Z,13.90
2022-09-21T01:54:42.911Z,13.63
2022-09-21T01:57:19.278Z,13.62
2022-09-21T01:59:59.279Z,13.84
2022-09-21T02:02:58.615Z,13.57
2022-09-21T02:05:28.518Z,13.68
2022-09-21T02:07:56.596Z,13.76
2022-09-21T02:10:47.805Z,13.63
2022-09-21T02:13:17.431Z,13.54
2022-09-21T02:16:05.855Z,13.66
2022-09-21T02:18:51.299Z,13.84
2022-09-21T02:21:32.154Z,13.76
2022-09-21T02:24:22.038Z,14.00
2022-09-21T02:26:55.290Z,14.20
2022-09-21T02:29:27.915Z,14.25
2022-09-21T02:32:39.223Z,14.09
2022-09-21T02:35:33.864Z,14.04
2022-09-21T02:38:05.155Z,13.87
2022-09-21T02:40:53.519Z,13.70
2022-09-21T02:43:35.305Z,13.63
2022-09-21T02:46:27.802Z,13.75
2022-09-21T02:49:00.910Z,13.52
2022-09-21T02:51:42.275Z,13.78
2022-09-21T02:54:13.340Z,13.78
2022-09-21T02:56:42.391Z,13.73
2022-09-21T02:59:10.035Z,13.51
2022-09-21T03:01:39.696Z,13.49
2022-09-21T03:04:06.438Z,13.29
2022-09-21T03:06:33.723Z,13.34
2022-09-21T03:09:00.618Z,13.32
2022-09-21T03:11:27.415Z,13.20
2022-09-21T03:13:54.191Z,13.65
2022-09-21T03:16:21.410Z,13.61
2022-09-21T03:18:48.839Z,13.72
2022-09-21T03:21:15.483Z,13.35
2022-09-21T03:23:42.283Z,13.46
2022-09-21T03:26:09.123Z,13.32
2022-09-21T03:28:35.890Z,13.67
2022-09-21T03:31:02.618Z,13.47
2022-09-21T03:33:29.367Z,13.54
2022-09-21T03:35:56.023Z,13.62
2022-09-21T03:38:22.707Z,13.33
2022-09-21T03:40:49.576Z,13.50
2022-09-21T03:43:17.080Z,13.64
2022-09-21T03:45:44.486Z,13.50
2022-09-21T03:48:12.747Z,13.43
2022-09-21T03:50:40.122Z,13.45
2022-09-21T03:53:07.656Z,13.14
2022-09-21T03:55:34.872Z,13.23
2022-09-21T03:58:02.071Z,13.17
2022-09-21T04:00:29.223Z,13.38
2022-09-21T04:02:56.141Z,12.84
2022-09-21T04:05:23.597Z,13.17
2022-09-21T04:07:50.671Z,12.97
2022-09-21T04:10:20.081Z,13.05
2022-09-21T04:12:47.639Z,12.85
2022-09-21T04:15:19.105Z,13.07
2022-09-21T04:17:52.250Z,12.92
2022-09-21T04:20:20.144Z,12.63
2022-09-21T04:22:47.622Z,12.53
2022-09-21T04:25:15.206Z,12.67
2022-09-21T04:27:42.020Z,12.76
2022-09-21T04:30:10.677Z,12.58
2022-09-21T04:32:37.373Z,12.57
2022-09-21T04:35:04.522Z,12.33
2022-09-21T04:37:31.220Z,12.34
2022-09-21T04:39:57.993Z,12.57
2022-09-21T04:42:24.890Z,12.61
2022-09-21T04:44:51.512Z,12.33
2022-09-21T04:47:18.162Z,12.56
2022-09-21T04:49:44.938Z,12.25
2022-09-21T04:52:13.756Z,12.55
2022-09-21T04:54:43.760Z,12.63
2022-09-21T04:57:10.484Z,12.52
2022-09-21T04:59:37.149Z,12.71
2022-09-21T05:02:03.862Z,12.79
2022-09-21T05:04:30.998Z,12.69
2022-09-21T05:06:59.862Z,12.76
2022-09-21T05:09:45.330Z,12.87
2022-09-21T05:12:11.982Z,12.81
2022-09-21T05:14:38.712Z,12.72
2022-09-21T05:17:05.400Z,12.54
2022-09-21T05:19:32.044Z,12.41
2022-09-21T05:21:58.874Z,12.63
2022-09-21T05:24:25.632Z,12.71
2022-09-21T05:26:52.346Z,12.25
2022-09-21T05:29:19.295Z,12.61
2022-09-21T05:31:54.732Z,12.30
2022-09-21T05:34:36.600Z,12.58
2022-09-21T05:37:25.164Z,12.44
2022-09-21T05:39:52.197Z,12.42
2022-09-21T05:42:19.200Z,12.24
2022-09-21T05:44:46.493Z,12.23
2022-09-21T05:47:40.265Z,12.46
2022-09-21T05:50:21.835Z,12.40
2022-09-21T05:53:16.643Z,12.54
2022-09-21T05:55:53.707Z,12.41
2022-09-21T05:58:39.303Z,12.56
2022-09-21T06:01:17.925Z,12.61
2022-09-21T06:03:45.088Z,12.28
2022-09-21T06:06:11.869Z,12.42
2022-09-21T06:08:39.073Z,12.31
2022-09-21T06:11:06.038Z,12.61
2022-09-21T06:13:32.887Z,12.63
2022-09-21T06:16:03.406Z,12.78
2022-09-21T06:18:30.269Z,12.74
2022-09-21T06:20:57.087Z,12.93
2022-09-21T06:23:23.867Z,12.97
2022-09-21T06:25:58.195Z,13.07
2022-09-21T06:28:25.318Z,13.40
2022-09-21T06:30:53.627Z,13.31
2022-09-21T06:33:23.539Z,13.46
2022-09-21T06:35:56.103Z,13.39
2022-09-21T06:38:23.920Z,13.42
2022-09-21T06:40:51.767Z,13.25
2022-09-21T06:43:19.373Z,13.47
2022-09-21T06:45:58.095Z,13.69
2022-09-21T06:48:25.615Z,13.68
2022-09-21T06:51:00.178Z,14.16
2022-09-21T06:53:29.428Z,14.94
2022-09-21T06:56:04.375Z,14.57
2022-09-21T06:58:32.314Z,14.29
2022-09-21T07:00:59.298Z,14.42
2022-09-21T07:03:26.229Z,14.01
2022-09-21T07:05:53.082Z,14.27
2022-09-21T07:11:08.038Z,16.02
2022-09-21T07:13:36.131Z,16.36
2022-09-21T07:16:07.747Z,16.98
2022-09-21T07:18:42.602Z,17.64
2022-09-21T07:21:11.764Z,17.88
2022-09-21T07:23:38.719Z,18.07
2022-09-21T07:26:11.896Z,18.48
2022-09-21T07:28:39.364Z,18.38
2022-09-21T07:31:14.668Z,18.17
2022-09-21T07:33:44.886Z,18.64
2022-09-21T07:36:13.603Z,18.65
2022-09-21T07:38:43.404Z,18.93
2022-09-21T07:41:13.521Z,18.86
2022-09-21T07:46:21.853Z,19.10
2022-09-21T07:48:48.787Z,19.47
2022-09-21T07:51:16.154Z,19.33
2022-09-21T07:53:48.324Z,19.48
2022-09-21T07:56:17.839Z,19.49
2022-09-21T07:59:03.979Z,19.61
2022-09-21T08:01:31.246Z,19.99
2022-09-21T08:03:58.944Z,20.15
2022-09-21T08:06:28.419Z,19.92
2022-09-21T08:08:57.727Z,20.05
2022-09-21T08:11:27.577Z,20.26
2022-09-21T08:13:57.880Z,20.22
2022-09-21T08:16:25.757Z,20.51
2022-09-21T08:18:52.688Z,20.47
2022-09-21T08:21:20.702Z,20.70
2022-09-21T08:23:50.480Z,20.62
2022-09-21T08:26:19.624Z,20.85
2022-09-21T08:28:52.362Z,21.27
2022-09-21T08:31:21.826Z,20.65
2022-09-21T08:33:50.004Z,20.14
2022-09-21T08:36:18.038Z,20.67
2022-09-21T08:38:44.967Z,20.66
2022-09-21T08:41:50.083Z,21.12
2022-09-21T08:44:53.196Z,20.75
2022-09-21T08:47:42.124Z,20.67
2022-09-21T08:50:24.669Z,21.03
2022-09-21T08:52:54.248Z,21.08
2022-09-21T08:55:21.491Z,20.80
2022-09-21T08:57:48.262Z,20.83
2022-09-21T09:00:19.689Z,21.28
2022-09-21T09:03:14.194Z,20.72
2022-09-21T09:06:00.417Z,21.11
2022-09-21T09:08:36.098Z,21.20
2022-09-21T09:11:29.491Z,20.09
2022-09-21T09:14:17.022Z,20.38
2022-09-21T09:17:02.458Z,20.73
2022-09-21T09:19:29.149Z,20.90
2022-09-21T09:21:57.074Z,20.45
2022-09-21T09:24:46.979Z,20.22
2022-09-21T09:27:25.213Z,20.35
2022-09-21T09:30:03.508Z,20.35
2022-09-21T09:32:43.068Z,20.06
2022-09-21T09:35:51.190Z,20.00
2022-09-21T09:38:21.955Z,19.79
2022-09-21T09:41:14.602Z,20.13
2022-09-21T09:43:48.712Z,20.08
2022-09-21T09:46:54.311Z,19.89
2022-09-21T09:49:39.992Z,20.14
2022-09-21T09:52:12.955Z,19.90
2022-09-21T09:54:42.623Z,20.46
2022-09-21T09:57:10.036Z,20.29
2022-09-21T09:59:58.945Z,19.94
2022-09-21T10:02:29.712Z,19.62
2022-09-21T10:05:06.702Z,19.87
2022-09-21T10:07:46.075Z,20.17
2022-09-21T10:10:22.000Z,20.44
2022-09-21T10:12:51.704Z,20.07
2022-09-21T10:15:27.726Z,19.97
2022-09-21T10:18:37.683Z,20.09
2022-09-21T10:21:10.301Z,19.95
2022-09-21T10:23:38.599Z,19.87
2022-09-21T10:26:10.218Z,19.79
2022-09-21T10:28:37.558Z,20.26
2022-09-21T10:31:24.358Z,20.59
2022-09-21T10:33:54.810Z,20.12
2022-09-21T10:36:29.936Z,20.37
2022-09-21T10:38:57.186Z,20.20
2022-09-21T10:41:24.067Z,20.57
2022-09-21T10:43:51.171Z,20.34
2022-09-21T10:46:18.354Z,20.83
2022-09-21T10:48:46.685Z,20.78
2022-09-21T10:51:30.058Z,20.73
2022-09-21T10:53:57.868Z,21.22
2022-09-21T10:56:25.277Z,20.81
2022-09-21T10:59:22.096Z,21.29
2022-09-21T11:02:00.194Z,20.65
2022-09-21T11:04:37.747Z,21.03
2022-09-21T11:07:20.220Z,20.55
2022-09-21T11:10:11.153Z,20.41
2022-09-21T11:13:27.368Z,21.12
2022-09-21T11:16:16.389Z,21.10
2022-09-21T11:19:01.361Z,20.79
2022-09-21T11:21:44.680Z,20.41
2022-09-21T11:24:21.530Z,20.89
2022-09-21T11:27:04.187Z,20.28
2022-09-21T11:29:57.395Z,20.97
2022-09-21T11:32:55.505Z,20.70
2022-09-21T11:35:59.083Z,21.23
2022-09-21T11:38:44.375Z,21.41
2022-09-21T11:41:36.594Z,21.40
2022-09-21T11:44:32.888Z,21.27
2022-09-21T11:50:30.326Z,20.92
2022-09-21T11:56:00.791Z,20.97
2022-09-21T11:58:40.586Z,21.32
2022-09-21T12:01:10.217Z,21.00
2022-09-21T12:03:58.978Z,21.13
2022-09-21T12:07:07.326Z,21.30
2022-09-21T12:09:40.108Z,21.17
2022-09-21T12:12:18.886Z,20.86
2022-09-21T12:15:06.908Z,21.18
2022-09-21T12:18:11.013Z,20.96
2022-09-21T12:21:11.749Z,21.12
2022-09-21T12:23:38.364Z,21.17
2022-09-21T12:26:06.455Z,21.01
2022-09-21T12:28:39.962Z,21.17
2022-09-21T12:31:16.106Z,21.23
2022-09-21T12:33:50.300Z,21.48
2022-09-21T12:36:23.104Z,21.41
2022-09-21T12:39:01.549Z,21.33
2022-09-21T12:42:03.183Z,20.56
2022-09-21T12:44:52.652Z,20.90
2022-09-21T12:47:34.302Z,21.07
2022-09-21T12:50:16.311Z,21.03
2022-09-21T12:52:43.982Z,21.27
2022-09-21T12:55:22.870Z,21.31
2022-09-21T12:58:20.274Z,21.37
2022-09-21T13:00:58.351Z,20.71
2022-09-21T14:45:04.789Z,19.32
2022-09-21T17:12:06.407Z,18.08
2022-09-21T17:17:32.221Z,18.52
2022-09-21T17:33:37.499Z,17.99
2022-09-21T17:38:47.351Z,18.16
2022-09-21T17:41:22.749Z,17.77
2022-09-21T17:44:14.746Z,17.64
2022-09-21T17:46:50.922Z,17.93
2022-09-21T17:49:17.933Z,17.64
2022-09-21T17:52:03.655Z,17.66
2022-09-21T17:54:30.722Z,18.05
2022-09-21T17:57:29.984Z,17.91
2022-09-21T18:00:09.866Z,17.60
2022-09-21T18:02:36.700Z,17.75
2022-09-21T18:05:29.878Z,17.40
2022-09-21T18:07:57.303Z,17.34
2022-09-21T18:10:27.564Z,17.65
2022-09-21T18:12:54.340Z,17.79
2022-09-21T18:15:35.028Z,17.86
2022-09-21T18:18:31.849Z,17.47
2022-09-21T18:21:13.121Z,17.17
2022-09-21T18:24:00.367Z,17.59
2022-09-21T18:26:27.255Z,17.12
2022-09-21T18:29:12.617Z,17.34
2022-09-21T18:32:06.504Z,17.44
2022-09-21T18:35:06.434Z,17.48
2022-09-21T18:37:49.991Z,16.99
2022-09-21T18:40:38.475Z,17.33
2022-09-21T18:43:20.216Z,17.39
2022-09-21T18:45:54.369Z,16.88
2022-09-21T18:48:50.565Z,17.44
2022-09-21T18:51:22.991Z,17.60
2022-09-21T18:54:05.108Z,17.41
2022-09-21T18:56:39.478Z,16.98
2022-09-21T18:59:07.270Z,17.19
2022-09-21T19:01:34.484Z,17.24
2022-09-21T19:04:01.934Z,17.03
2022-09-21T19:06:37.657Z,17.12
2022-09-21T19:09:16.724Z,17.39
2022-09-21T19:11:43.443Z,17.23
2022-09-21T19:14:37.465Z,17.21
2022-09-21T19:17:16.729Z,17.11
2022-09-21T19:20:05.236Z,17.38
2022-09-21T19:22:53.405Z,17.27
2022-09-21T19:25:31.606Z,17.04
2022-09-21T19:28:14.856Z,17.11
2022-09-21T19:30:42.680Z,17.16
2022-09-21T19:33:48.475Z,16.89
2022-09-21T19:36:14.266Z,17.12
2022-09-21T19:38:41.167Z,17.04
2022-09-21T19:41:19.105Z,16.91
2022-09-21T19:43:52.777Z,16.98
2022-09-21T19:47:00.757Z,16.94
2022-09-21T19:49:36.605Z,16.95
2022-09-21T19:52:05.310Z,16.79
2022-09-21T19:54:51.034Z,16.79
2022-09-21T19:57:38.878Z,16.92
2022-09-21T20:00:09.222Z,16.72
2022-09-21T20:03:09.164Z,16.84
2022-09-21T20:05:49.526Z,16.74
2022-09-21T20:08:40.985Z,16.48
2022-09-21T20:11:26.221Z,16.75
2022-09-21T20:14:31.338Z,16.72
2022-09-21T20:17:00.948Z,16.28
2022-09-21T20:19:42.844Z,16.44
2022-09-21T20:22:18.030Z,16.53
2022-09-21T20:25:03.640Z,16.49
2022-09-21T20:27:40.977Z,16.57
2022-09-21T20:30:12.211Z,16.38
2022-09-21T20:32:42.641Z,16.25
2022-09-21T20:35:18.374Z,16.12
2022-09-21T20:37:45.613Z,16.28
2022-09-21T20:40:13.386Z,16.32
2022-09-21T20:42:41.546Z,16.10
2022-09-21T20:45:10.253Z,16.41
2022-09-21T20:47:37.474Z,16.31
2022-09-21T20:50:05.308Z,16.56
2022-09-21T20:52:31.996Z,16.08
2022-09-21T20:54:58.720Z,16.33
2022-09-21T20:57:25.587Z,16.17
2022-09-21T20:59:52.311Z,16.15
2022-09-21T21:02:19.002Z,16.21
2022-09-21T21:04:45.678Z,16.10
2022-09-21T21:07:12.379Z,16.05
2022-09-21T21:09:39.055Z,16.14
2022-09-21T21:12:06.077Z,16.21
2022-09-21T21:14:32.914Z,15.85
2022-09-21T21:16:59.623Z,16.20
2022-09-21T21:19:26.524Z,16.26
2022-09-21T21:21:53.272Z,16.11
2022-09-21T21:24:38.464Z,16.11
2022-09-21T21:27:05.194Z,16.37
2022-09-21T21:29:32.284Z,16.41
2022-09-21T21:31:59.890Z,16.52
2022-09-21T21:34:27.659Z,16.37
2022-09-21T21:36:57.375Z,16.28
2022-09-21T21:39:24.287Z,16.19
2022-09-21T21:41:51.025Z,16.08
2022-09-21T21:44:20.150Z,15.98
2022-09-21T21:46:46.852Z,15.85
2022-09-21T21:49:13.895Z,16.30
2022-09-21T21:51:40.788Z,16.41
2022-09-21T21:54:07.585Z,16.22
2022-09-21T21:56:34.287Z,16.43
2022-09-21T21:59:01.128Z,16.36
2022-09-21T22:01:29.695Z,16.61
2022-09-21T22:04:01.227Z,16.77
2022-09-21T22:06:29.681Z,16.69
2022-09-21T22:08:56.956Z,16.66
2022-09-21T22:11:25.185Z,16.57
2022-09-21T22:13:54.203Z,16.52
2022-09-21T22:16:23.374Z,16.66
2022-09-21T22:18:51.300Z,16.61
2022-09-21T22:21:28.588Z,16.77
2022-09-21T22:23:56.756Z,16.76
2022-09-21T22:26:25.010Z,16.55
2022-09-21T22:28:57.205Z,16.70
2022-09-21T22:31:27.200Z,16.65
2022-09-21T22:33:55.611Z,16.68
2022-09-21T22:36:25.077Z,16.61
2022-09-21T22:38:53.655Z,16.26
2022-09-21T22:41:23.188Z,16.27
2022-09-21T22:43:52.066Z,16.45
2022-09-21T22:46:20.022Z,16.41
2022-09-21T22:48:47.707Z,16.48
2022-09-21T22:51:16.076Z,16.35
2022-09-21T22:53:43.534Z,16.38
2022-09-21T22:56:12.702Z,16.41
2022-09-21T22:58:45.415Z,16.03
2022-09-21T23:01:19.462Z,16.48
2022-09-21T23:03:48.461Z,16.65
2022-09-21T23:06:18.031Z,16.20
2022-09-21T23:08:49.503Z,16.36
2022-09-21T23:11:27.675Z,16.63
2022-09-21T23:13:55.564Z,16.75
2022-09-21T23:16:23.148Z,16.78
2022-09-21T23:18:50.279Z,17.01
2022-09-21T23:21:19.963Z,17.07
2022-09-21T23:23:47.563Z,16.87
2022-09-21T23:26:17.866Z,16.94
2022-09-21T23:28:46.657Z,17.01
2022-09-21T23:31:15.107Z,16.55
2022-09-21T23:33:44.589Z,16.76
2022-09-21T23:36:13.896Z,16.79
2022-09-21T23:38:41.768Z,16.90
2022-09-21T23:41:14.875Z,16.95
2022-09-21T23:43:42.562Z,16.93
2022-09-21T23:46:11.802Z,16.86
2022-09-21T23:48:39.446Z,16.42
2022-09-21T23:51:07.506Z,16.60
2022-09-21T23:53:35.267Z,16.52
2022-09-21T23:56:02.618Z,16.49
2022-09-21T23:58:29.619Z,16.47
